Terminal Aerodrome Forecast
Issued by NWS

Home | Current Version | Previous Version | Text Only | Print | Product List | Glossary On
Versions: 1 2 3 4 5 6 7 8 9 10 11 12 13 14 15
000
FTUS42 KFFC 172110 AAB
TAFPDK
TAF AMD
KPDK 172110Z 1721/1818 08006KT 4SM -DZ BR OVC015
     FM172300 08005KT 6SM BR VCSH BKN020
     FM180100 08004KT 4SM BR BKN015
     FM180400 08004KT 2SM -DZ BR BKN006
     FM181200 03003KT 1SM -DZ BR OVC004
     FM181600 28003KT P6SM BKN008 BKN080=

USA.gov is the U.S. government's official web portal to all federal, state and local government web resources and services.